• Join FlightAware (Why Join?)
  • Login
  • US Flag 
01:12PM EDT


 

Airport Tracker/Info


-or-


 

Live Flight TrackerFlight Track Log ✈ GES61 ✈ 18-Apr-2013 ✈ KIAD - LEMD / MAD

Flight Track Log - Related Links

Times and Time Zones

All times are in EDT time to prevent confusion due to time zone crossing. See the GES61 flight status page for this flight to view local times or setup timezone preferences in your user account.

Time Position Orientation Groundspeed Altitude Reporting Facility
EDT Latitude Longitude Course Direction KTS MPH feet Rate Location/Type
07:09PM 38.9833 -77.5333 314° West 230 265 3,000  Level Potomac TRACON
07:10PM 39.0333 -77.6000 314° West 285 328 4,800 2,520 Climbing Potomac TRACON
07:11PM 39.1000 -77.5500 30° Northeast 312 359 8,100 2,100 Climbing Potomac TRACON
07:12PM 39.1500 -77.4500 57° Northeast 329 379 9,000 420 Climbing Potomac TRACON
07:13PM 39.2000 -77.3500 57° Northeast 328 377 9,000 1,260 Level Potomac TRACON
07:15PM 39.3061 -77.1044 61° Northeast 354 407 13,200 2,160 Climbing Washington Center
07:16PM 39.3286 -76.9681 78° East 375 432 16,200 2,580 Climbing Washington Center
07:17PM 39.3094 -76.8256 100° East 380 437 18,400 2,340 Climbing Washington Center
07:18PM 39.2900 -76.6750 99° East 397 457 20,900 2,280 Climbing Washington Center
07:19PM 39.2725 -76.5244 98° East 409 471 23,000 1,020 Climbing Washington Center
07:20PM 39.2506 -76.3714 100° East 422 486 23,000  Level Washington Center
07:21PM 39.2306 -76.2078 99° East 441 507 23,000  Level Washington Center
07:22PM 39.2147 -76.0631 98° East 456 525 23,000 600 Level Washington Center
07:23PM 39.2153 -75.8969 90° East 461 531 24,200 1,440 Climbing Washington Center
07:24PM 39.2925 -75.7553 55° Northeast 448 516 25,900 2,220 Climbing Washington Center
07:25PM 39.3864 -75.6292 46° Northeast 456 525 28,700 2,100 Climbing Washington Center
07:26PM 39.4844 -75.5081 44° Northeast 467 537 30,200 1,440 Climbing Washington Center
07:27PM 39.5822 -75.3761 46° Northeast 478 550 31,600 1,680 Climbing Washington Center
07:28PM 39.6778 -75.2492 46° Northeast 486 559 33,600 2,400 Climbing Washington Center
07:29PM 39.7400 -75.1633 47° Northeast 489 563 35,500 2,160 Climbing New York Center
07:30PM 39.8194 -75.0439 49° Northeast 513 590 37,000 1,320 Climbing New York Center
07:31PM 39.9094 -74.9167 47° Northeast 498 573 38,100 1,380 Climbing New York Center
07:32PM 40.0125 -74.7711 47° Northeast 488 562 39,800 1,560 Climbing New York Center
07:33PM 40.0892 -74.6589 48° Northeast 471 542 41,300 1,080 Climbing New York Center
07:34PM 40.1692 -74.5003 57° Northeast 465 535 42,100 600 Climbing New York Center
07:35PM 40.2092 -74.3531 70° East 465 535 42,500 300 Climbing New York Center
07:37PM 40.3058 -73.9831 71° East 474 545 43,200 360 Climbing Boston Center
07:38PM 40.3517 -73.8153 70° East 479 551 43,700 540 Climbing Boston Center
07:39PM 40.3997 -73.6228 72° East 490 564 44,300 420 Climbing Boston Center
07:40PM 40.4453 -73.4544 70° East 490 564 44,600 240 Climbing Boston Center
07:41PM 40.4903 -73.2858 71° East 490 564 44,900 180 Climbing Boston Center
07:42PM 40.5311 -73.1144 73° East 485 558 45,000  Climbing Boston Center
07:43PM 40.5778 -72.9428 70° East 485 558 45,000  Level Boston Center
07:44PM 40.6203 -72.7708 72° East 485 558 45,000  Level Boston Center
07:45PM 40.6644 -72.5961 72° East 490 564 45,000  Level Boston Center
07:46PM 40.7103 -72.4236 71° East 496 571 45,000  Level Boston Center
07:47PM 40.7497 -72.2675 72° East 501 577 45,000  Level Boston Center
07:48PM 40.7850 -72.1275 72° East 501 577 45,000  Level Boston Center
07:49PM 40.8444 -71.9078 70° East 495 570 45,000  Level Boston Center
07:50PM 40.8872 -71.7317 72° East 495 570 45,000  Level Boston Center
07:51PM 40.9317 -71.5417 73° East 502 578 45,000  Level Boston Center
07:52PM 40.9908 -71.3758 65° Northeast 508 585 45,000  Level Boston Center
07:53PM 41.0517 -71.2208 62° Northeast 487 560 45,000  Level Boston Center
07:54PM 41.1103 -71.0517 65° Northeast 487 560 45,000  Level Boston Center
07:55PM 41.1683 -70.8767 66° East 492 566 45,000  Level Boston Center
07:56PM 41.2264 -70.7097 65° Northeast 492 566 45,000  Level Boston Center
07:57PM 41.2939 -70.5061 66° East 497 572 45,000  Level Boston Center
07:58PM 41.3469 -70.3303 68° East 505 581 45,000  Level Boston Center
07:59PM 41.4083 -70.1622 64° Northeast 505 581 45,000  Level Boston Center
08:00PM 41.4653 -69.9911 66° East 505 581 45,000  Level Boston Center
08:01PM 41.5178 -69.8228 67° East 505 581 45,000  Level Boston Center
08:02PM 41.5644 -69.6878 65° Northeast 505 581 45,000  Level Boston Center
08:04PM 41.6322 -69.4819 66° East 505 581 45,000  Level Boston Center
08:05PM 41.7069 -69.2419 67° East 500 575 45,000  Level Boston Center
08:06PM 41.7667 -69.0719 65° Northeast 500 575 45,000  Level Boston Center
08:07PM 41.8122 -68.9219 68° East 495 570 45,000  Level Boston Center
08:08PM 41.8672 -68.7542 66° East 484 557 45,000  Level Boston Center
08:08PM 41.8833 -68.6333 80° East 490 564 45,000  Level Moncton Center
08:09PM 41.9222 -68.5864 42° Northeast 484 557 45,000  Level Boston Center
08:10PM 41.9744 -68.4128 68° East 489 563 45,000  Level Boston Center
08:11PM 42.0378 -68.2072 67° East 489 563 45,000  Level Boston Center
08:12PM 42.0919 -68.0386 67° East 489 563 45,000  Level Boston Center
08:13PM 42.1472 -67.8581 68° East 484 557 45,000  Level Boston Center
08:13PM 42.1667 -67.7500 76° East 490 564 45,000  Level Moncton Center
08:14PM 42.2167 -67.5667 70° East 500 575 45,000  Level Moncton Center
08:15PM 42.2667 -67.4167 66° East 490 564 45,000  Level Moncton Center
08:16PM 42.3333 -67.2500 62° Northeast 500 575 45,000  Level Moncton Center
08:17PM 42.3667 -67.0667 76° East 500 575 45,000  Level Moncton Center
08:18PM 42.4167 -66.8833 70° East 500 575 45,000  Level Moncton Center
08:19PM 42.4833 -66.7333 59° Northeast 500 575 45,000  Level Moncton Center
08:20PM 42.5333 -66.5333 71° East 510 587 45,000  Level Moncton Center
08:21PM 42.5833 -66.3667 68° East 510 587 45,000  Level Moncton Center
08:22PM 42.6333 -66.1833 70° East 510 587 45,000  Level Moncton Center
08:23PM 42.6833 -66.0167 68° East 500 575 45,000  Level Moncton Center
08:24PM 42.7167 -65.8333 76° East 500 575 45,000  Level Moncton Center
08:25PM 42.7833 -65.6500 64° Northeast 490 564 45,000  Level Moncton Center
08:26PM 42.8333 -65.4833 68° East 500 575 45,000  Level Moncton Center
08:27PM 42.8833 -65.3167 68° East 500 575 45,000  Level Moncton Center
08:28PM 42.9333 -65.1333 70° East 500 575 45,000  Level Moncton Center
08:29PM 42.9833 -64.9500 69° East 500 575 45,000  Level Moncton Center
08:30PM 43.0333 -64.7667 69° East 510 587 45,000  Level Moncton Center
08:31PM 43.0833 -64.5833 69° East 510 587 45,000  Level Moncton Center
08:32PM 43.1333 -64.4000 69° East 510 587 45,000  Level Moncton Center
08:33PM 43.1833 -64.2167 69° East 510 587 45,000  Level Moncton Center
08:34PM 43.2167 -64.0333 76° East 520 598 45,000  Level Moncton Center
08:35PM 43.2667 -63.8500 69° East 520 598 45,000  Level Moncton Center
08:36PM 43.3167 -63.6667 69° East 510 587 45,000  Level Moncton Center
08:37PM 43.3667 -63.4833 69° East 520 598 45,000  Level Moncton Center
08:38PM 43.4167 -63.3000 69° East 520 598 45,000  Level Moncton Center
08:39PM 43.4667 -63.0833 72° East 520 598 45,000  Level Moncton Center
08:40PM 43.4833 -63.0333 65° Northeast 520 598 45,000  Level Gander Center
08:41PM 43.5333 -62.8500 69° East 520 598 45,000  Level Gander Center
08:42PM 43.5833 -62.6333 72° East 530 610 45,000  Level Gander Center
08:42PM 43.6000 -62.5333 77° East 530 610 45,000  Level Moncton Center
08:44PM 43.6667 -62.2500 72° East 530 610 45,000  Level Gander Center
08:44PM 43.7000 -62.1500 65° Northeast 520 598 45,000  Level Moncton Center
08:45PM 43.7167 -62.0667 75° East 530 610 45,000  Level Gander Center
08:46PM 43.7667 -61.8833 69° East 530 610 45,000  Level Gander Center
08:47PM 43.8167 -61.6667 72° East 530 610 45,000  Level Gander Center
08:47PM 43.8333 -61.5667 77° East 530 610 45,000  Level Moncton Center
08:48PM 43.9000 -61.3667 65° Northeast 530 610 45,000  Level Moncton Center
08:49PM 43.9333 -61.1667 77° East 530 610 45,000  Level Moncton Center
08:50PM 43.9833 -60.9667 71° East 530 610 45,000  Level Moncton Center
08:51PM 44.0333 -60.7667 71° East 530 610 45,000  Level Moncton Center
08:52PM 44.0667 -60.5833 76° East 540 621 45,000  Level Moncton Center
08:53PM 44.1167 -60.3667 72° East 540 621 45,000  Level Moncton Center
08:54PM 44.1333 -60.3000 71° East 540 621 45,000  Level Gander Center
08:54PM 44.1500 -60.1833 79° East 540 621 45,000  Level Moncton Center
08:55PM 44.2000 -59.9667 72° East 540 621 45,000  Level Moncton Center
08:56PM 44.2333 -59.7833 76° East 540 621 45,000  Level Moncton Center
08:57PM 44.3000 -59.5667 67° East 550 633 45,000  Level Moncton Center
08:58PM 44.3333 -59.3667 77° East 540 621 45,000  Level Moncton Center
08:59PM 44.3833 -59.1500 72° East 540 621 45,000  Level Moncton Center
09:00PM 44.4167 -58.9667 76° East 550 633 45,000  Level Moncton Center
09:01PM 44.4667 -58.7500 72° East 540 621 45,000  Level Moncton Center
09:02PM 44.4833 -58.6667 74° East 550 633 45,000  Level Gander Center
09:03PM 44.5167 -58.4833 76° East 550 633 45,000  Level Gander Center
09:04PM 44.5667 -58.2833 71° East 550 633 45,000  Level Gander Center
09:05PM 44.6167 -58.0667 72° East 540 621 45,000  Level Gander Center
09:06PM 44.6333 -57.8667 83° East 540 621 45,000  Level Gander Center
09:06PM 44.6667 -57.7333 71° East 540 621 45,000  Level Moncton Center
09:07PM 44.7167 -57.5500 69° East 540 621 45,000  Level Moncton Center
09:08PM 44.7333 -57.4500 77° East 540 621 45,000  Level Gander Center
09:09PM 44.7667 -57.2500 77° East 530 610 45,000  Level Gander Center
09:10PM 44.8167 -57.0500 71° East 540 621 45,000  Level Gander Center
09:10PM 44.8333 -56.9167 80° East 530 610 45,000  Level Moncton Center
09:11PM 44.8500 -56.7167 83° East 530 610 45,000  Level Moncton Center
09:12PM 44.8833 -56.6500 55° Northeast 530 610 45,000  Level Gander Center
09:13PM 44.9167 -56.4333 78° East 530 610 45,000  Level Gander Center
09:13PM 44.9500 -56.3333 65° Northeast 530 610 45,000  Level Moncton Center
09:14PM 44.9667 -56.1333 83° East 530 610 45,000  Level Moncton Center
09:15PM 45.0167 -55.9167 72° East 530 610 45,000  Level Moncton Center
09:16PM 45.0500 -55.7167 77° East 520 598 45,000  Level Moncton Center
09:17PM 45.0833 -55.5333 75° East 520 598 45,000  Level Moncton Center
09:18PM 45.0833 -55.4500 90° East 520 598 45,000  Level Gander Center
09:18PM 45.1167 -55.3333 68° East 520 598 45,000  Level Moncton Center
09:19PM 45.1500 -55.1333 77° East 510 587 45,000  Level Moncton Center
09:20PM 45.1833 -54.9333 77° East 510 587 45,000  Level Moncton Center
09:21PM 45.2167 -54.8000 70° East 510 587 45,000  Level Gander Center
09:22PM 45.2500 -54.5667 78° East 520 598 45,000  Level Gander Center
09:23PM 45.2833 -54.3833 75° East 520 598 45,000  Level Gander Center
09:24PM 45.3333 -54.1833 70° East 510 587 45,000  Level Gander Center
09:25PM 45.3333 -54.0667 90° East 520 598 45,000  Level Gander Center
09:25PM 45.3667 -53.9500 68° East 520 598 45,000  Level Moncton Center
09:26PM 45.3667 -53.8667 90° East 520 598 45,000  Level Gander Center
09:26PM 45.4000 -53.7500 68° East 520 598 45,000  Level Moncton Center
09:27PM 45.4167 -53.6000 81° East 520 598 45,000  Level Gander Center
09:28PM 45.4667 -53.4000 70° East 520 598 45,000  Level Gander Center
09:29PM 45.5000 -53.1833 78° East 520 598 45,000  Level Gander Center
09:30PM 45.5167 -53.0833 77° East 510 587 45,000  Level Gander Center
09:30PM 45.5333 -52.9500 80° East 510 587 45,000  Level Moncton Center
09:31PM 45.5500 -52.8667 74° East 520 598 45,000  Level Gander Center
09:32PM 45.5667 -52.6667 83° East 510 587 45,000  Level Gander Center
09:33PM 45.6000 -52.4667 77° East 520 598 45,000  Level Gander Center
09:34PM 45.6333 -52.2833 75° East 520 598 45,000  Level Gander Center
09:34PM 45.6500 -52.2000 74° East 520 598 45,000  Level Gander Center
09:35PM 45.6833 -52.0000 77° East 520 598 45,000  Level Gander Center
09:36PM 45.7000 -51.8500 81° East 520 598 45,000  Level Gander Center
09:37PM 45.7333 -51.6667 75° East 520 598 45,000  Level Gander Center
09:37PM 45.7500 -51.5333 80° East 520 598 45,000  Level Moncton Center
09:38PM 45.7833 -51.3667 74° East 520 598 45,000  Level Moncton Center
09:39PM 45.8000 -51.1333 84° East 530 610 45,000  Level Moncton Center
09:40PM 45.8333 -51.0333 64° Northeast 530 610 45,000  Level Gander Center
09:41PM 45.8667 -50.8333 76° East 530 610 45,000  Level Gander Center
09:42PM 45.8833 -50.6167 84° East 530 610 45,000  Level Gander Center
09:43PM 45.9000 -50.4167 83° East 540 621 45,000  Level Gander Center
09:44PM 45.9500 -50.2000 72° East 540 621 45,000  Level Gander Center
09:45PM 45.9667 -50.0000 83° East 540 621 45,000  Level Gander Center
09:46PM 46.0167 -49.8000 70° East 540 621 45,000  Level Gander Center
09:47PM 46.0333 -49.5667 84° East 530 610 45,000  Level Gander Center
09:48PM 46.0667 -49.3667 76° East 530 610 45,000  Level Gander Center
09:48PM 46.0667 -49.3000 90° East 540 621 45,000  Level Gander Center
09:49PM 46.1000 -49.1000 78° East 530 610 45,000  Level Gander Center
09:50PM 46.0000 -50.0000 78° East 532 612 45,000  Level ETMS Enhanced Traffic Management System
09:50PM 46.1333 -48.8667 78° East 540 621 45,000  Level Gander Center
09:51PM 46.1500 -48.7500 78° East 540 621 45,000  Level Gander Center
09:52PM 46.1667 -48.5167 84° East 550 633 45,000  Level Gander Center
09:52PM 46.2000 -48.4500 54° Northeast 540 621 45,000  Level Gander Center
09:53PM 46.2167 -48.2500 83° East 540 621 45,000  Level Gander Center
09:54PM 46.2500 -48.0333 77° East 540 621 45,000  Level Gander Center
09:55PM 46.2667 -47.8167 84° East 550 633 45,000  Level Gander Center
09:56PM 46.3000 -47.6167 76° East 540 621 45,000  Level Gander Center
09:57PM 46.3167 -47.3833 84° East 540 621 45,000  Level Gander Center
09:58PM 46.3333 -47.1833 83° East 530 610 45,000  Level Gander Center
09:59PM 46.3667 -47.0667 67° East 530 610 45,000  Level Gander Center
10:00PM 46.3833 -46.8500 84° East 530 610 45,000  Level Gander Center
10:02PM 46.4230 -46.5180 80° East  Level FlightAware Approximate
10:09PM 46.5793 -45.1185 80° East  Level FlightAware Approximate
10:10PM 46.6003 -44.9179 81° East  Level FlightAware Approximate
10:11PM 46.6208 -44.7172 81° East  Level FlightAware Approximate
10:12PM 46.6411 -44.5163 82° East  Level FlightAware Approximate
10:13PM 46.6609 -44.3153 82° East  Level FlightAware Approximate
10:14PM 46.6805 -44.1141 82° East  Level FlightAware Approximate
10:15PM 46.6996 -43.9128 82° East  Level FlightAware Approximate
10:16PM 46.7184 -43.7113 82° East  Level FlightAware Approximate
10:17PM 46.7369 -43.5097 82° East  Level FlightAware Approximate
10:18PM 46.7550 -43.3080 82° East  Level FlightAware Approximate
10:19PM 46.7728 -43.1061 83° East  Level FlightAware Approximate
10:20PM 46.7902 -42.9041 83° East  Level FlightAware Approximate
10:21PM 46.8072 -42.7020 83° East  Level FlightAware Approximate
10:22PM 46.8239 -42.4997 83° East  Level FlightAware Approximate
10:23PM 46.8402 -42.2974 83° East  Level FlightAware Approximate
10:24PM 46.8562 -42.0948 83° East  Level FlightAware Approximate
10:25PM 46.8718 -41.8922 83° East  Level FlightAware Approximate
10:26PM 46.8871 -41.6895 84° East  Level FlightAware Approximate
10:27PM 46.9020 -41.4866 84° East  Level FlightAware Approximate
10:28PM 46.9165 -41.2837 84° East  Level FlightAware Approximate
10:29PM 46.9307 -41.0806 84° East  Level FlightAware Approximate
10:30PM 46.9445 -40.8774 84° East  Level FlightAware Approximate
10:31PM 46.9580 -40.6741 84° East  Level FlightAware Approximate
10:32PM 46.9711 -40.4708 85° East  Level FlightAware Approximate
10:33PM 46.9838 -40.2673 85° East  Level FlightAware Approximate
10:34PM 46.9962 -40.0637 85° East  Level FlightAware Approximate
10:35PM 47.0058 -39.8599 86° East  Level FlightAware Approximate
10:35PM 47.0000 -40.0000 86° East 522 601 45,000  Level ETMS Enhanced Traffic Management System
10:36PM 47.0139 -39.6557 87° East  Level FlightAware Approximate
10:37PM 47.0216 -39.4515 87° East  Level FlightAware Approximate
10:38PM 47.0290 -39.2473 87° East  Level FlightAware Approximate
10:39PM 47.0360 -39.0430 87° East  Level FlightAware Approximate
10:40PM 47.0427 -38.8387 87° East  Level FlightAware Approximate
10:41PM 47.0674 -38.0877 88° East 522 601 45,000  Level FlightAware Transoceanic
10:42PM 47.0730 -37.8750 88° East 522 601 45,000  Level FlightAware Transoceanic
10:43PM 47.0781 -37.6622 88° East 522 601 45,000  Level FlightAware Transoceanic
10:44PM 47.0828 -37.4493 88° East 522 601 45,000  Level FlightAware Transoceanic
10:45PM 47.0872 -37.2365 88° East 522 601 45,000  Level FlightAware Transoceanic
10:46PM 47.0911 -37.0236 89° East 522 601 45,000  Level FlightAware Transoceanic
10:47PM 47.0947 -36.8106 89° East 522 601 45,000  Level FlightAware Transoceanic
10:48PM 47.0978 -36.5977 89° East 522 601 45,000  Level FlightAware Transoceanic
10:49PM 47.1006 -36.3847 89° East 522 601 45,000  Level FlightAware Transoceanic
10:50PM 47.1030 -36.1717 89° East 522 601 45,000  Level FlightAware Transoceanic
10:51PM 47.1049 -35.9587 89° East 522 601 45,000  Level FlightAware Transoceanic
10:52PM 47.1065 -35.7457 89° East 522 601 45,000  Level FlightAware Transoceanic
10:53PM 47.1077 -35.5326 90° East 522 601 45,000  Level FlightAware Transoceanic
10:54PM 47.1085 -35.3196 90° East 522 601 45,000  Level FlightAware Transoceanic
10:55PM 47.1089 -35.1065 90° East 522 601 45,000  Level FlightAware Transoceanic
10:56PM 47.1089 -34.8935 90° East 522 601 45,000  Level FlightAware Transoceanic
10:57PM 47.1085 -34.6804 90° East 522 601 45,000  Level FlightAware Transoceanic
10:58PM 47.1077 -34.4674 90° East 522 601 45,000  Level FlightAware Transoceanic
10:59PM 47.1065 -34.2543 91° East 522 601 45,000  Level FlightAware Transoceanic
11:00PM 47.1049 -34.0413 91° East 522 601 45,000  Level FlightAware Transoceanic
11:01PM 47.1030 -33.8283 91° East 522 601 45,000  Level FlightAware Transoceanic
11:02PM 47.1006 -33.6153 91° East 522 601 45,000  Level FlightAware Transoceanic
11:03PM 47.0978 -33.4023 91° East 522 601 45,000  Level FlightAware Transoceanic
11:04PM 47.0947 -33.1894 91° East 522 601 45,000  Level FlightAware Transoceanic
11:05PM 47.0911 -32.9764 91° East 522 601 45,000  Level FlightAware Transoceanic
11:06PM 47.0872 -32.7635 92° East 522 601 45,000  Level FlightAware Transoceanic
11:07PM 47.0828 -32.5507 92° East 522 601 45,000  Level FlightAware Transoceanic
11:08PM 47.0781 -32.3378 92° East 522 601 45,000  Level FlightAware Transoceanic
11:09PM 47.0730 -32.1250 92° East 522 601 45,000  Level FlightAware Transoceanic
11:10PM 47.0674 -31.9123 92° East 522 601 45,000  Level FlightAware Transoceanic
11:11PM 47.0615 -31.6996 92° East 522 601 45,000  Level FlightAware Transoceanic
11:12PM 47.0552 -31.4869 93° East 522 601 45,000  Level FlightAware Transoceanic
11:13PM 47.0485 -31.2743 93° East 522 601 45,000  Level FlightAware Transoceanic
11:14PM 47.0414 -31.0618 93° East 522 601 45,000  Level FlightAware Transoceanic
11:15PM 47.0339 -30.8493 93° East 522 601 45,000  Level FlightAware Transoceanic
11:16PM 47.0260 -30.6369 93° East 522 601 45,000  Level FlightAware Transoceanic
11:17PM 47.0177 -30.4245 93° East 522 601 45,000  Level FlightAware Transoceanic
11:18PM 47.0091 -30.2122 94° East 522 601 45,000  Level FlightAware Transoceanic
11:19PM 47.0004 -30.0082 94° East  Level FlightAware Approximate
11:20PM 46.9912 -29.8042 94° East  Level FlightAware Approximate
11:21PM 46.9895 -29.8126 95° East  Level FlightAware Approximate
11:22PM 46.9778 -29.6090 95° East  Level FlightAware Approximate
11:23PM 46.9657 -29.4054 95° East  Level FlightAware Approximate
11:24PM 46.9533 -29.2020 95° East  Level FlightAware Approximate
11:24PM 47.0000 -30.0000 95° East 532 612 45,000  Level ETMS Enhanced Traffic Management System
11:25PM 46.9404 -28.9986 95° East  Level FlightAware Approximate
11:26PM 46.9273 -28.7953 95° East  Level FlightAware Approximate
11:27PM 46.9137 -28.5922 95° East  Level FlightAware Approximate
11:28PM 46.8999 -28.3891 96° East  Level FlightAware Approximate
11:29PM 46.8856 -28.1862 96° East  Level FlightAware Approximate
11:30PM 46.8281 -27.4141 97° East 532 612 45,000  Level FlightAware Transoceanic
11:31PM 46.8111 -27.1994 97° East 532 612 45,000  Level FlightAware Transoceanic
11:32PM 46.7938 -26.9848 97° East 532 612 45,000  Level FlightAware Transoceanic
11:33PM 46.7760 -26.7704 97° East 532 612 45,000  Level FlightAware Transoceanic
11:34PM 46.7579 -26.5561 97° East 532 612 45,000  Level FlightAware Transoceanic
11:35PM 46.7393 -26.3420 97° East 532 612 45,000  Level FlightAware Transoceanic
11:36PM 46.7204 -26.1280 97° East 532 612 45,000  Level FlightAware Transoceanic
11:37PM 46.7010 -25.9142 98° East 532 612 45,000  Level FlightAware Transoceanic
11:38PM 46.6813 -25.7005 98° East 532 612 45,000  Level FlightAware Transoceanic
11:39PM 46.6612 -25.4870 98° East 532 612 45,000  Level FlightAware Transoceanic
11:40PM 46.6406 -25.2736 98° East 532 612 45,000  Level FlightAware Transoceanic
11:41PM 46.6197 -25.0604 98° East 532 612 45,000  Level FlightAware Transoceanic
11:42PM 46.5983 -24.8474 98° East 532 612 45,000  Level FlightAware Transoceanic
11:43PM 46.5766 -24.6346 99° East 532 612 45,000  Level FlightAware Transoceanic
11:44PM 46.5545 -24.4219 99° East 532 612 45,000  Level FlightAware Transoceanic
11:45PM 46.5320 -24.2094 99° East 532 612 45,000  Level FlightAware Transoceanic
11:46PM 46.5091 -23.9970 99° East 532 612 45,000  Level FlightAware Transoceanic
11:47PM 46.4858 -23.7849 99° East 532 612 45,000  Level FlightAware Transoceanic
11:48PM 46.4621 -23.5729 99° East 532 612 45,000  Level FlightAware Transoceanic
11:49PM 46.4380 -23.3611 99° East 532 612 45,000  Level FlightAware Transoceanic
11:50PM 46.4135 -23.1495 100° East 532 612 45,000  Level FlightAware Transoceanic
11:51PM 46.3886 -22.9381 100° East 532 612 45,000  Level FlightAware Transoceanic
11:52PM 46.3634 -22.7269 100° East 532 612 45,000  Level FlightAware Transoceanic
11:53PM 46.3377 -22.5159 100° East 532 612 45,000  Level FlightAware Transoceanic
11:54PM 46.3117 -22.3051 100° East 532 612 45,000  Level FlightAware Transoceanic
11:55PM 46.2853 -22.0945 100° East 532 612 45,000  Level FlightAware Transoceanic
11:56PM 46.2585 -21.8841 101° East 532 612 45,000  Level FlightAware Transoceanic
11:57PM 46.2313 -21.6738 101° East 532 612 45,000  Level FlightAware Transoceanic
11:58PM 46.2037 -21.4639 101° East 532 612 45,000  Level FlightAware Transoceanic
11:59PM 46.1758 -21.2541 101° East 532 612 45,000  Level FlightAware Transoceanic
12:00AM 46.1474 -21.0445 101° East 532 612 45,000  Level FlightAware Transoceanic
12:01AM 46.1187 -20.8352 101° East 532 612 45,000  Level FlightAware Transoceanic
12:02AM 46.0896 -20.6260 101° East 532 612 45,000  Level FlightAware Transoceanic
12:03AM 46.0601 -20.4171 102° East 532 612 45,000  Level FlightAware Transoceanic
12:04AM 46.0303 -20.2085 102° East 532 612 45,000  Level FlightAware Transoceanic
12:05AM 46.0017 -20.0119 102° East  Level FlightAware Approximate
12:06AM 45.9729 -19.8156 102° East  Level FlightAware Approximate
12:07AM 45.9692 -19.8294 104° East  Level FlightAware Approximate
12:08AM 45.9339 -19.6354 105° East  Level FlightAware Approximate
12:09AM 45.8983 -19.4417 105° East  Level FlightAware Approximate
12:10AM 45.8623 -19.2482 105° East  Level FlightAware Approximate
12:11AM 45.8260 -19.0550 105° East  Level FlightAware Approximate
12:12AM 45.7893 -18.8620 105° East  Level FlightAware Approximate
12:13AM 45.7524 -18.6693 105° East  Level FlightAware Approximate
12:14AM 45.7151 -18.4768 105° East  Level FlightAware Approximate
12:15AM 45.6775 -18.2846 106° East  Level FlightAware Approximate
12:16AM 45.6395 -18.0926 106° East  Level FlightAware Approximate
12:17AM 45.6013 -17.9010 106° East  Level FlightAware Approximate
12:18AM 45.5627 -17.7095 106° East  Level FlightAware Approximate
12:19AM 45.5238 -17.5184 106° East  Level FlightAware Approximate
12:20AM 45.4848 -17.3274 106° East  Level FlightAware Approximate
12:21AM 45.4455 -17.1367 106° East  Level FlightAware Approximate
12:22AM 45.4059 -16.9462 106° East  Level FlightAware Approximate
12:23AM 45.3660 -16.7560 107° East  Level FlightAware Approximate
12:24AM 45.3258 -16.5661 107° East  Level FlightAware Approximate
12:25AM 45.2852 -16.3764 107° East  Level FlightAware Approximate
12:26AM 45.2444 -16.1870 107° East  Level FlightAware Approximate
12:27AM 45.2032 -15.9979 107° East  Level FlightAware Approximate
12:28AM 45.1617 -15.8091 107° East  Level FlightAware Approximate
12:29AM 45.1199 -15.6205 107° East  Level FlightAware Approximate
12:30AM 45.0778 -15.4323 108° East  Level FlightAware Approximate
12:31AM 45.0354 -15.2443 108° East  Level FlightAware Approximate
12:32AM 44.9926 -15.0565 108° East  Level FlightAware Approximate
12:33AM 44.9496 -14.8691 108° East  Level FlightAware Approximate
12:34AM 44.9063 -14.6819 108° East  Level FlightAware Approximate
12:35AM 44.8626 -14.4951 108° East  Level FlightAware Approximate
12:36AM 44.8187 -14.3084 108° East  Level FlightAware Approximate
12:37AM 44.7744 -14.1221 108° East  Level FlightAware Approximate
12:38AM 44.7299 -13.9361 109° East  Level FlightAware Approximate
12:39AM 44.6850 -13.7504 109° East  Level FlightAware Approximate
12:40AM 44.6399 -13.5649 109° East  Level FlightAware Approximate
12:41AM 44.5944 -13.3798 109° East  Level FlightAware Approximate
12:42AM 44.5486 -13.1949 109° East  Level FlightAware Approximate
12:43AM 44.5026 -13.0103 109° East  Level FlightAware Approximate
12:44AM 44.4465 -12.8315 114° Southeast  Level FlightAware Approximate
12:45AM 44.3895 -12.6534 114° Southeast  Level FlightAware Approximate
12:46AM 44.3322 -12.4756 114° Southeast  Level FlightAware Approximate
12:47AM 44.2747 -12.2982 114° Southeast  Level FlightAware Approximate
12:48AM 44.2169 -12.1210 114° Southeast  Level FlightAware Approximate
12:49AM 44.1588 -11.9443 115° Southeast  Level FlightAware Approximate
12:50AM 44.1004 -11.7679 115° Southeast  Level FlightAware Approximate
12:51AM 44.0418 -11.5919 115° Southeast  Level FlightAware Approximate
12:52AM 43.9829 -11.4162 115° Southeast  Level FlightAware Approximate
12:53AM 43.9237 -11.2408 115° Southeast  Level FlightAware Approximate
12:54AM 43.8643 -11.0658 115° Southeast  Level FlightAware Approximate
12:55AM 43.8046 -10.8911 115° Southeast  Level FlightAware Approximate
12:56AM 43.7446 -10.7168 115° Southeast  Level FlightAware Approximate
12:57AM 43.6844 -10.5428 116° Southeast  Level FlightAware Approximate
12:58AM 43.6239 -10.3692 116° Southeast  Level FlightAware Approximate
12:59AM 43.5631 -10.1960 116° Southeast  Level FlightAware Approximate
01:00AM 43.5021 -10.0231 116° Southeast  Level FlightAware Approximate
01:01AM 43.4408 -9.8505 116° Southeast  Level FlightAware Approximate
01:02AM 43.3793 -9.6783 116° Southeast  Level FlightAware Approximate
01:03AM 43.3175 -9.5064 116° Southeast  Level FlightAware Approximate
01:04AM 43.2555 -9.3349 116° Southeast  Level FlightAware Approximate
01:05AM 43.1931 -9.1638 116° Southeast  Level FlightAware Approximate
01:06AM 43.1306 -8.9930 117° Southeast  Level FlightAware Approximate
01:07AM 43.0678 -8.8225 117° Southeast  Level FlightAware Approximate
01:08AM 43.0047 -8.6524 117° Southeast  Level FlightAware Approximate
01:09AM 42.9414 -8.4826 117° Southeast  Level FlightAware Approximate
01:10AM 42.8712 -8.3184 122° Southeast  Level FlightAware Approximate
01:11AM 42.7966 -8.1578 122° Southeast  Level FlightAware Approximate
01:12AM 42.7217 -7.9976 122° Southeast  Level FlightAware Approximate
01:13AM 42.6466 -7.8378 123° Southeast  Level FlightAware Approximate
01:14AM 42.5714 -7.6784 123° Southeast  Level FlightAware Approximate
01:15AM 42.4958 -7.5193 123° Southeast  Level FlightAware Approximate
01:16AM 42.4201 -7.3607 123° Southeast  Level FlightAware Approximate
01:17AM 42.3441 -7.2024 123° Southeast  Level FlightAware Approximate
01:18AM 42.2680 -7.0445 123° Southeast  Level FlightAware Approximate
01:19AM 42.1916 -6.8870 123° Southeast  Level FlightAware Approximate
01:20AM 42.1150 -6.7298 122° Southeast  Level FlightAware Approximate
01:21AM 42.0405 -6.5711 122° Southeast  Level FlightAware Approximate
01:22AM 41.9600 -6.4189 135° Southeast  Level FlightAware Approximate
01:23AM 41.8786 -6.2680 122° Southeast  Level FlightAware Approximate
01:24AM 41.8035 -6.1103 123° Southeast  Level FlightAware Approximate
01:25AM 41.7257 -5.9552 125° Southeast  Level FlightAware Approximate
01:26AM 41.6454 -5.8026 125° Southeast  Level FlightAware Approximate
01:27AM 41.5612 -5.6556 124° Southeast  Level FlightAware Approximate
01:28AM 41.4838 -5.5007 124° Southeast  Level FlightAware Approximate
01:29AM 41.4064 -5.3460 124° Southeast  Level FlightAware Approximate
01:30AM 41.3292 -5.1913 124° Southeast  Level FlightAware Approximate
01:31AM 41.2518 -5.0370 124° Southeast  Level FlightAware Approximate
01:32AM 41.1721 -4.8849 125° Southeast  Level FlightAware Approximate
01:33AM 41.0921 -4.7333 125° Southeast  Level FlightAware Approximate
01:34AM 41.0149 -4.5794 123° Southeast  Level FlightAware Approximate
01:35AM 40.9378 -4.4255 124° Southeast  Level FlightAware Approximate
01:36AM 40.8565 -4.2757 126° Southeast  Level FlightAware Approximate
01:37AM 40.7733 -4.1280 127° Southeast  Level FlightAware Approximate
01:38AM 40.6902 -3.9803 123° Southeast  Level FlightAware Approximate
01:39AM 40.6188 -3.8230 114° Southeast  Level FlightAware Approximate
01:40AM 40.5373 -3.6745 123° Southeast  Level FlightAware Approximate
01:41AM 40.4936 -3.5668 128° Southeast  Level Estimated
01:42AM 40.4936 -3.5668 128° Southeast  Level Estimated
01:43AM 40.4936 -3.5668 128° Southeast  Level Estimated
01:44AM 40.4936 -3.5668 128° Southeast  Level Estimated
01:45AM 40.4936 -3.5668 128° Southeast  Level Estimated
01:46AM 40.4936 -3.5668 128° Southeast  Level Estimated
01:47AM 40.4936 -3.5668 128° Southeast  Level Estimated
01:48AM 40.4936 -3.5668 128° Southeast  Level Estimated
01:49AM 40.4936 -3.5668 128° Southeast  Level Estimated
01:50AM 40.4936 -3.5668 128° Southeast  Level Estimated
01:51AM 40.4936 -3.5668 128° Southeast  Level Estimated
01:52AM 40.4936 -3.5668 128° Southeast  Level Estimated
01:53AM 40.4936 -3.5668 128° Southeast  Level Estimated
01:54AM 40.4936 -3.5668 128° Southeast  Level Estimated
01:55AM 40.4936 -3.5668 128° Southeast  Level Estimated
01:56AM 40.4936 -3.5668 128° Southeast  Level Estimated
01:57AM 40.4936 -3.5668 128° Southeast  Level Estimated
01:58AM 40.4936 -3.5668 128° Southeast  Level Estimated
01:59AM 40.4936 -3.5668 128° Southeast  Level Estimated
02:00AM 40.4936 -3.5668 128° Southeast  Level Estimated
02:01AM 40.4936 -3.5668 128° Southeast  Level Estimated
02:02AM 40.4936 -3.5668 128° Southeast  Level Estimated
02:03AM 40.4936 -3.5668 128° Southeast  Level Estimated